Terminal Aerodrome Forecast
Issued by NWS

Home | Current Version | Previous Version | Text Only | Print | Product List | Glossary On
Versions: 1 2 3 4 5 6 7 8 9 10 11 12 13 14
000
FTAK31 PAJN 271734
TAFAGY
TAF
PAGY 271734Z 2718/2818 21015G22KT P6SM VCSH BKN060 OVC080
     FM272200 21020G25KT P6SM OVC050
     FM280700 21012G18KT P6SM OVC050
     FM281400 21008KT P6SM OVC050
      AMD LTD TO CLD VIS AND WIND=

USA.gov is the U.S. government's official web portal to all federal, state and local government web resources and services.